Latest Coastal Weather Observations for Ulladulla

IDN60701

Issued at 9:25 am EST Monday 21 April 2014 (issued every 10 minutes, with the page automatically refreshed every 10 minutes)

About coastal observations | Map of coastal stations | Coastal observations for NSW | Marine services | Other Formats
Station Details ID: 069138 Name: ULLADULLA AWS Lat: -35.36 Lon: 150.48 Height: 35.7 m
Data from the previous 72 hours. | See also: Recent months at Ulladulla
Date/Time
EST
Temp

°C
Wind Pressure Rain
since 9am
mm
Weather Cloud Vis
km
Sea
Height
m
Swell
Dir
 
Speed
knots
Gust
knots
hPa Trend Height
m
Period
s
Dir
21/09:00am 18.3 WSW 6 9 1021.0 - 0.0 - - - - - - -
21/08:30am 17.1 SW 7 11 1020.8 - 0.0 - - - - - - -
21/08:00am 16.2 WSW 6 11 1020.5 - 0.0 - - - - - - -
21/07:30am 14.7 WSW 7 10 1020.2 - 0.0 - - - - - - -
21/07:00am 14.0 WSW 6 10 1019.9 - 0.0 - - - - - - -
21/06:30am 13.9 WSW 6 11 1019.5 - 0.0 - - - - - - -
21/06:00am 14.2 WSW 7 11 1019.2 - 0.0 - - - - - - -
21/05:30am 14.2 WSW 7 12 1018.9 - 0.0 - - - - - - -
21/05:00am 14.3 SW 9 14 1018.6 - 0.0 - - - - - - -
21/04:30am 14.2 SW 8 12 1018.5 - 0.0 - - - - - - -
21/04:00am 14.1 WSW 8 12 1018.0 - 0.0 - - - - - - -
21/03:30am 14.1 WSW 9 12 1018.0 - 0.0 - - - - - - -
21/03:00am 13.9 WSW 8 13 1017.9 - 0.0 - - - - - - -
21/02:30am 13.9 WSW 7 11 1018.0 - 0.0 - - - - - - -
21/02:00am 14.0 WSW 7 13 1018.1 - 0.0 - - - - - - -
21/01:30am 13.8 W 6 11 1018.2 - 0.0 - - - - - - -
21/01:00am 13.7 W 6 10 1018.3 - 0.0 - - - - - - -
21/12:30am 13.6 W 5 8 1018.2 - 0.0 - - - - - - -
21/12:00am 13.9 W 5 7 1018.3 - 0.0 - - - - - - -
 
Date/Time
EST
Temp

°C
Wind Pressure Rain
since 9am
mm
Weather Cloud Vis
km
Sea
Height
m
Swell
Dir
 
Speed
knots
Gust
knots
hPa Trend Height
m
Period
s
Dir
20/11:30pm 13.9 WNW 4 7 1018.2 - 0.0 - - - - - - -
20/11:00pm 14.0 W 4 7 1018.3 - 0.0 - - - - - - -
20/10:30pm 14.4 W 6 10 1018.4 - 0.0 - - - - - - -
20/10:00pm 14.5 W 5 8 1018.5 - 0.0 - - - - - - -
20/09:30pm 14.8 WNW 4 7 1018.5 - 0.0 - - - - - - -
20/09:00pm 15.0 W 5 10 1018.2 - 0.0 - - - - - - -
20/08:30pm 15.5 W 5 8 1017.9 - 0.0 - - - - - - -
20/08:00pm 15.7 W 5 9 1017.8 - 0.0 - - - - - - -
20/07:30pm 16.1 WSW 6 10 1017.3 - 0.0 - - - - - - -
20/07:00pm 16.1 W 4 7 1016.8 - 0.0 - - - - - - -
20/06:30pm 16.6 W 4 7 1016.5 - 0.0 - - - - - - -
20/06:00pm 17.4 W 4 6 1015.8 - 0.0 - - - - - - -
20/05:30pm 19.1 W 2 5 1015.3 - 0.0 - - - - - - -
20/05:00pm 20.5 WSW 2 3 1014.7 - 0.0 - - - - - - -
20/04:30pm 21.3 NNW 6 11 1014.3 - 0.0 - - - - - - -
20/04:00pm 21.8 S 1 4 1014.0 - 0.0 - - - - - - -
20/03:30pm 21.2 SE 2 3 1014.1 - 0.0 - - - - - - -
20/03:00pm 21.1 SE 3 4 1014.1 - 0.0 - - - - - - -
20/02:30pm 21.0 SSE 3 5 1014.2 - 0.0 - - - - - - -
20/02:00pm 21.0 SE 4 6 1014.3 - 0.0 - - - - - - -
20/01:30pm 20.7 SSE 4 7 1014.5 - 0.0 - - - - - - -
20/01:00pm 20.7 SSE 4 6 1014.5 - 0.0 - - - - - - -
20/12:30pm 21.0 ESE 3 6 1015.1 - 0.0 - - - - - - -
20/12:00pm 21.0 WSW 3 7 1015.6 - 0.0 - - - - - - -
20/11:30am 19.8 NNW 7 11 1016.2 - 0.0 - - - - - - -
20/11:00am 19.4 NNW 7 11 1016.5 - 0.0 - - - - - - -
20/10:30am 19.6 NNW 8 12 1016.9 - 0.0 - - - - - - -
20/10:00am 19.1 N 7 11 1017.0 - 0.0 - - - - - - -
20/09:30am 18.5 NNW 6 9 1017.5 - 0.0 - - - - - - -
20/09:00am 17.6 N 5 8 1017.7 - 0.0 - - - - - - -
20/08:30am 17.3 NNW 3 5 1017.8 - 0.0 - - - - - - -
20/08:00am 15.9 NNW 3 5 1017.7 - 0.0 - - - - - - -
20/07:30am 14.6 NW 3 4 1017.6 - 0.0 - - - - - - -
20/07:00am 12.7 NW 3 4 1017.2 - 0.0 - - - - - - -
20/06:30am 11.7 WNW 3 5 1017.1 - 0.0 - - - - - - -
20/06:00am 11.6 W 5 6 1016.9 - 0.0 - - - - - - -
20/05:30am 11.6 W 5 6 1016.8 - 0.0 - - - - - - -
20/05:00am 11.6 W 5 6 1016.5 - 0.0 - - - - - - -
20/04:30am 11.7 W 4 5 1016.6 - 0.0 - - - - - - -
20/04:00am 11.6 W 4 6 1016.5 - 0.0 - - - - - - -
20/03:30am 11.8 W 5 6 1016.7 - 0.0 - - - - - - -
20/03:00am 11.9 W 4 6 1016.8 - 0.0 - - - - - - -
20/02:30am 12.1 W 4 6 1017.0 - 0.0 - - - - - - -
20/02:00am 12.3 W 4 6 1017.1 - 0.0 - - - - - - -
20/01:30am 12.7 W 5 6 1017.4 - 0.0 - - - - - - -
20/01:00am 13.1 WSW 4 7 1017.7 - 0.0 - - - - - - -
20/12:30am 13.8 WSW 6 8 1017.7 - 0.0 - - - - - - -
20/12:00am 14.1 W 5 7 1018.0 - 0.0 - - - - - - -
 
Date/Time
EST
Temp

°C
Wind Pressure Rain
since 9am
mm
Weather Cloud Vis
km
Sea
Height
m
Swell
Dir
 
Speed
knots
Gust
knots
hPa Trend Height
m
Period
s
Dir
19/11:30pm 14.1 WSW 5 8 1017.9 - 0.0 - - - - - - -
19/11:00pm 14.3 WSW 5 7 1018.0 - 0.0 - - - - - - -
19/10:30pm 14.5 WSW 5 8 1018.2 - 0.0 - - - - - - -
19/10:00pm 14.7 WSW 6 8 1018.3 - 0.0 - - - - - - -
19/09:30pm 14.6 W 5 9 1018.2 - 0.0 - - - - - - -
19/09:00pm 14.0 WSW 5 7 1018.0 - 0.0 - - - - - - -
19/08:30pm 14.0 W 3 5 1017.8 - 0.0 - - - - - - -
19/08:00pm 14.7 W 3 5 1017.7 - 0.0 - - - - - - -
19/07:30pm 15.6 SW 3 6 1017.5 - 0.0 - - - - - - -
19/07:00pm 17.1 S 5 9 1017.1 - 0.0 - - - - - - -
19/06:30pm 17.3 S 7 12 1016.9 - 0.0 - - - - - - -
19/06:00pm 17.2 S 8 11 1016.5 - 0.0 - - - - - - -
19/05:30pm 17.0 S 6 11 1016.3 - 0.0 - - - - - - -
19/05:00pm 17.3 S 8 10 1016.0 - 0.0 - - - - - - -
19/04:30pm 17.5 S 8 12 1016.0 - 0.0 - - - - - - -
19/04:00pm 17.9 S 8 13 1015.6 - 0.0 - - - - - - -
19/03:30pm 18.4 S 8 14 1015.6 - 0.0 - - - - - - -
19/03:00pm 18.4 S 8 12 1015.4 - 0.0 - - - - - - -
19/02:30pm 18.4 S 11 15 1015.5 - 0.0 - - - - - - -
19/02:00pm 18.6 S 10 16 1015.4 - 0.0 - - - - - - -
19/01:30pm 18.9 S 9 13 1015.6 - 0.0 - - - - - - -
19/01:00pm 18.8 S 10 13 1015.7 - 0.0 - - - - - - -
19/12:30pm 18.6 S 12 18 1016.2 - 0.0 - - - - - - -
19/12:00pm 18.8 SSW 8 13 1016.4 - 0.0 - - - - - - -
19/11:30am 18.3 SSW 8 14 1016.9 - 0.0 - - - - - - -
19/11:00am 18.2 SSW 9 14 1017.1 - 0.0 - - - - - - -
19/10:30am 17.5 SSW 9 15 1017.4 - 0.0 - - - - - - -
19/10:00am 17.4 SSW 9 14 1017.4 - 0.0 - - - - - - -
19/09:30am 16.9 SSW 9 16 1017.4 - 0.0 - - - - - - -
19/09:00am 16.7 SW 7 13 1017.2 - 0.0 - - - - - - -
19/08:30am 15.8 SSW 8 14 1017.3 - 0.0 - - - - - - -
19/08:00am 15.2 SW 5 8 1017.0 - 0.0 - - - - - - -
19/07:30am 14.1 WSW 6 9 1017.0 - 0.0 - - - - - - -
19/07:00am 13.1 WSW 5 9 1016.6 - 0.0 - - - - - - -
19/06:30am 12.3 WSW 5 7 1016.5 - 0.0 - - - - - - -
19/06:00am 13.2 SW 7 10 1016.0 - 0.0 - - - - - - -
19/05:30am 13.9 SW 6 9 1016.0 - 0.0 - - - - - - -
19/05:00am 14.4 SW 7 11 1015.6 - 0.0 - - - - - - -
19/04:30am 14.5 SW 6 11 1015.5 - 0.0 - - - - - - -
19/04:00am 14.7 SW 8 14 1015.1 - 0.0 - - - - - - -
19/03:30am 15.6 SW 8 13 1015.1 - 0.0 - - - - - - -
19/03:00am 16.2 SW 8 15 1014.9 - 0.0 - - - - - - -
19/02:30am 16.8 SSW 12 18 1014.7 - 0.0 - - - - - - -
19/02:00am 17.1 SSW 12 20 1014.7 - 0.0 - - - - - - -
19/01:30am 17.6 S 17 23 1014.8 - 0.0 - - - - - - -
19/01:00am 17.7 S 19 25 1014.4 - 0.0 - - - - - - -
19/12:41am 17.9 S 16 27 1014.5 - 0.0 - - - - - - -
19/12:30am 18.0 S 19 26 1014.4 - 0.0 - - - - - - -
19/12:21am 18.1 S 15 25 1014.5 - 0.0 - - - - - - -
19/12:00am 18.1 S 20 26 1014.2 - 0.0 - - - - - - -
 
Date/Time
EST
Temp

°C
Wind Pressure Rain
since 9am
mm
Weather Cloud Vis
km
Sea
Height
m
Swell
Dir
 
Speed
knots
Gust
knots
hPa Trend Height
m
Period
s
Dir
18/11:30pm 18.1 S 19 24 1014.3 - 0.0 - - - - - - -
18/11:00pm 18.4 S 19 23 1014.2 - 0.0 - - - - - - -
18/10:30pm 18.7 S 17 23 1014.2 - 0.0 - - - - - - -
18/10:00pm 19.0 S 18 26 1013.9 - 0.0 - - - - - - -
18/09:59pm 19.0 S 18 26 1014.0 - 0.0 - - - - - - -
18/09:30pm 18.7 S 11 16 1014.0 - 0.0 - - - - - - -
18/09:00pm 18.3 WNW 4 6 1013.1 - 0.0 - - - - - - -
18/08:30pm 18.2 WNW 4 6 1012.8 - 0.0 - - - - - - -
18/08:00pm 18.3 W 3 5 1012.4 - 0.0 - - - - - - -
18/07:30pm 18.6 W 4 6 1012.2 - 0.0 - - - - - - -
18/07:00pm 18.7 W 4 9 1011.7 - 0.0 - - - - - - -
18/06:30pm 19.0 W 4 5 1012.0 - 0.0 - - - - - - -
18/06:00pm 20.1 WNW 2 4 1011.4 - 0.0 - - - - - - -
18/05:30pm 21.0 NE 2 4 1011.5 - 0.0 - - - - - - -
18/05:00pm 21.0 NE 3 5 1011.3 - 0.0 - - - - - - -
18/04:30pm 21.0 ENE 4 6 1011.2 - 0.0 - - - - - - -
18/04:00pm 20.9 ENE 3 5 1011.2 - 0.0 - - - - - - -
18/03:30pm 21.0 ENE 4 7 1011.2 - 0.0 - - - - - - -
18/03:00pm 21.2 NE 4 6 1011.3 - 0.0 - - - - - - -
18/02:30pm 21.5 E 2 4 1011.5 - 0.0 - - - - - - -
18/02:00pm 21.8 E 4 6 1011.6 - 0.0 - - - - - - -
18/01:30pm 22.7 ESE 3 5 1012.1 - 0.0 - - - - - - -
18/01:00pm 22.7 SSE 3 5 1012.4 - 0.0 - - - - - - -
18/12:30pm 22.7 SSE 3 5 1012.8 - 0.0 - - - - - - -
18/12:00pm 23.0 SE 3 4 1013.0 - 0.0 - - - - - - -
18/11:30am 22.8 SW 3 6 1013.8 - 0.0 - - - - - - -
18/11:00am 21.9 WNW 3 6 1014.2 - 0.0 - - - - - - -
18/10:30am 22.1 WSW 4 7 1014.6 - 0.0 - - - - - - -
18/10:00am 20.8 WSW 4 7 1014.9 - 0.0 - - - - - - -
18/09:30am 20.7 WSW 2 4 1015.2 - 0.0 - - - - - - -

Other Formats:

Comma delimited format used in spreadsheet applications
http://www.bom.gov.au/fwo/IDN60701/IDN60701.94938.axf

JavaScript Object Notation format (JSON) in row-major order
http://www.bom.gov.au/fwo/IDN60701/IDN60701.94938.json